Minneapolis, MN (55423)

7:39 AM CDT on March 31, 2015 (GMT -0500)
Diamond Lake | | Change Station
CLOSE
Current Station
Personal Weather Station
Location: Minneapolis, MN
Elevation: 827 ft
Nearby Weather Stations

Elev 827 ft 44.89 °N, 93.26 °W | Updated 3 seconds ago

Patches of Fog
Patches Fog Mist
33.1 °F
Feels Like 33 °F
N
0.0
Wind Variable Wind from North
Gusts 0.0 mph

Today
High -- | Low -- °F
--% Chance of Precip.
Yesterday
High -- | Low -- °F
Precip. -- in
6:56 AM 7:39 PM
Waxing Gibbous, 86% visible
Pressure 29.91 in
Visibility 6.0 miles
Clouds Clear
Windchill 33 °F
Dew Point 31 °F
Humidity 91%
Rainfall 0.00 in
Snow Depth Not available.
UV 0 out of 12
Pollen 6.60 out of 12
Air Quality Not available.
Flu Activity Not available.
METAR KMSP 311153Z 00000KT 6SM BCFG BR CLR 02/01 A2990 RMK AO2 SLP128 BCFG NE-SE T00170006 10044 20000 51010

More Conditions Fewer Conditions

Pressure 29.91 in
Visibility 6.0 miles
Clouds Clear
Windchill 33 °F
Dew Point 31 °F
Humidity 91%
Rainfall 0.00 in
Snow Depth Not available.
UV 0 out of 12
Pollen 6.60 out of 12
Air Quality Not available.
Flu Activity Not available.
METAR KMSP 311153Z 00000KT 6SM BCFG BR CLR 02/01 A2990 RMK AO2 SLP128 BCFG NE-SE T00170006 10044 20000 51010

More Conditions Fewer Conditions

10-Day Weather Forecast

Almanac

Astronomy

Mar. 31, 2015 Rise Set
Actual Time
Civil Twilight
Nautical Twilight
Astronomical Twilight
Moon
Length of Visible Light
Length of Day
Tomorrow will be .
, % of the Moon is Illuminated

Today's Extremes

State Highs State Lows

Community

WunderPhotos

Upload Photos

1,809,754 photos uploaded!

WunderBlogs® & News

Nearby

Air Quality

  Air Quality AQ Index Pollutant
Not available.

Snow Depth

Station Depth Elevation

Earthquake Activity

City Distance Mag. Time & Date
Minimum magnitude displayed is 2.5.

Coastal Water Temperatures

Place Temperature

Stations

Nearby Weather Stations

Station Location Temp. Windchill Dew Point Humidity Wind Precip. Elev Updated Type